Time;durP1;ratioP1;P1;durP2;ratioP2;P2;SDS_P1;SDS_P2;PMS_P1;PMS_P2;Temp;Humidity;BMP_temperature;BMP_pressure;BME280_temperature;BME280_humidity;BME280_pressure;Samples;Min_cycle;Max_cycle;Signal;HPM_P1;HPM_P2
2022/10/28 00:01:07;;;;;;;16.62;10.18;;;;;;;10.76;99.45;100409.48;1750774;80;21151;-67
2022/10/28 00:03:46;;;;;;;12.78;9.80;;;;;;;10.84;99.34;100408.75;1751133;80;20983;-67
2022/10/28 00:06:19;;;;;;;14.30;10.60;;;;;;;10.83;99.53;100399.19;1726342;81;21513;-67
2022/10/28 00:08:46;;;;;;;11.43;10.23;;;;;;;10.86;99.63;100399.53;1730464;81;20974;-65
2022/10/28 00:11:21;;;;;;;12.30;10.60;;;;;;;10.85;99.82;100394.77;1758883;80;27773;-65
2022/10/28 00:13:48;;;;;;;22.52;11.43;;;;;;;10.88;99.95;100394.65;1762315;80;20918;-66
2022/10/28 00:16:22;;;;;;;16.12;10.98;;;;;;;10.95;99.86;100396.14;1755888;80;21075;-66
2022/10/28 00:18:52;;;;;;;20.55;11.28;;;;;;;11.02;99.94;100398.50;1753880;80;20973;-66
2022/10/28 00:21:22;;;;;;;19.40;10.43;;;;;;;11.05;99.98;100403.61;1747346;80;20973;-67
2022/10/28 00:23:49;;;;;;;19.73;10.28;;;;;;;11.06;100.00;100398.34;1763949;80;21069;-67
2022/10/28 00:26:20;;;;;;;16.20;11.12;;;;;;;11.10;100.00;100397.76;1751765;80;21021;-67
2022/10/28 00:28:57;;;;;;;11.48;10.28;;;;;;;11.13;100.00;100396.33;1761008;80;21486;-67
2022/10/28 00:31:27;;;;;;;14.85;10.05;;;;;;;11.16;100.00;100393.59;1753914;80;21030;-67
2022/10/28 00:33:55;;;;;;;16.17;11.10;;;;;;;11.18;100.00;100386.55;1769251;79;21035;-67
2022/10/28 00:36:26;;;;;;;13.15;10.58;;;;;;;11.20;100.00;100390.81;1769372;79;21061;-67
2022/10/28 00:38:54;;;;;;;12.35;11.05;;;;;;;11.20;100.00;100388.20;1768881;79;20964;-66
2022/10/28 00:41:34;;;;;;;13.85;10.18;;;;;;;11.22;100.00;100382.89;1762308;79;21051;-66
2022/10/28 00:44:15;;;;;;;12.55;11.22;;;;;;;11.23;100.00;100384.62;1761735;79;21641;-66
2022/10/28 00:46:46;;;;;;;12.25;11.03;;;;;;;11.23;100.00;100376.78;1741855;79;20898;-66
2022/10/28 00:49:20;;;;;;;12.65;10.40;;;;;;;11.24;100.00;100380.23;1767365;79;21586;-67
2022/10/28 00:51:51;;;;;;;14.43;11.55;;;;;;;11.21;100.00;100378.59;1774449;79;21103;-67
2022/10/28 00:54:19;;;;;;;13.65;11.73;;;;;;;11.25;100.00;100377.55;1760214;79;21584;-67
2022/10/28 00:56:49;;;;;;;;;;;;;;;11.26;100.00;100379.27;1759560;80;20967;-67
2022/10/28 00:59:26;;;;;;;12.65;11.33;;;;;;;11.29;100.00;100378.30;1759476;79;20149;-67
2022/10/28 01:01:53;;;;;;;;;;;;;;;11.31;100.00;100365.53;1773992;79;21503;-64
2022/10/28 01:04:21;;;;;;;15.60;12.82;;;;;;;11.34;100.00;100361.52;1766318;79;20176;-67
2022/10/28 01:06:48;;;;;;;13.68;11.75;;;;;;;11.35;100.00;100360.59;1753690;79;21021;-66
2022/10/28 01:09:15;;;;;;;16.40;12.20;;;;;;;11.36;100.00;100359.66;1758398;80;21625;-66
2022/10/28 01:12:18;;;;;;;14.90;12.13;;;;;;;11.35;100.00;100355.36;1759369;80;21072;-66
2022/10/28 01:15:05;;;;;;;13.18;11.78;;;;;;;11.32;100.00;100352.87;1757866;80;21518;-66
2022/10/28 01:18:18;;;;;;;14.23;12.73;;;;;;;11.28;100.00;100343.43;1755453;80;21120;-67
2022/10/28 01:21:21;;;;;;;14.93;13.00;;;;;;;11.25;100.00;100343.56;1762893;80;21016;-66
2022/10/28 01:24:13;;;;;;;14.83;12.63;;;;;;;11.25;100.00;100343.56;1760373;80;21504;-66
2022/10/28 01:26:57;;;;;;;14.80;12.75;;;;;;;11.24;100.00;100344.48;1763555;80;21139;-67
2022/10/28 01:30:04;;;;;;;14.50;13.00;;;;;;;11.21;100.00;100338.08;1761612;80;21291;-67
2022/10/28 01:32:48;;;;;;;14.75;12.55;;;;;;;11.22;100.00;100335.84;1719777;82;20985;-67
2022/10/28 01:35:48;;;;;;;16.20;13.55;;;;;;;11.22;100.00;100333.23;1752914;80;21040;-66
2022/10/28 01:38:41;;;;;;;14.80;13.30;;;;;;;11.16;100.00;100334.78;1761025;80;21719;-67
2022/10/28 01:41:31;;;;;;;15.13;13.62;;;;;;;11.14;100.00;100333.98;1746997;80;21044;-67
2022/10/28 01:44:15;;;;;;;15.63;13.30;;;;;;;11.09;100.00;100331.58;1751662;80;21404;-67
2022/10/28 01:46:56;;;;;;;15.88;13.80;;;;;;;11.05;100.00;100335.67;1758998;80;20990;-66
2022/10/28 01:49:41;;;;;;;14.60;13.08;;;;;;;11.04;100.00;100331.36;1754417;80;21056;-67
2022/10/28 01:52:12;;;;;;;14.78;13.18;;;;;;;11.02;100.00;100333.18;1741249;80;22617;-67
2022/10/28 01:54:43;;;;;;;14.40;12.90;;;;;;;11.00;100.00;100321.92;1757938;80;21065;-67
2022/10/28 01:57:12;;;;;;;13.08;11.78;;;;;;;11.00;100.00;100314.09;1751576;80;21154;-67
2022/10/28 01:59:40;;;;;;;15.50;12.55;;;;;;;10.98;100.00;100317.63;1755482;80;20998;-67
2022/10/28 02:02:07;;;;;;;16.90;12.15;;;;;;;10.96;100.00;100314.22;1765479;80;21360;-66
2022/10/28 02:04:33;;;;;;;15.33;13.83;;;;;;;10.91;100.00;100314.84;1757109;80;21048;-66
2022/10/28 02:07:00;;;;;;;14.87;12.63;;;;;;;10.91;100.00;100316.15;1779110;79;20941;-66
2022/10/28 02:10:02;;;;;;;15.20;12.98;;;;;;;10.94;100.00;100321.25;1756421;80;21066;-66
2022/10/28 02:12:34;;;;;;;14.13;12.63;;;;;;;10.96;100.00;100308.98;1769046;80;21494;-66
2022/10/28 02:15:27;;;;;;;16.10;14.40;;;;;;;11.00;100.00;100308.86;1781372;79;20899;-66
2022/10/28 02:18:21;;;;;;;15.50;12.93;;;;;;;11.00;100.00;100306.25;1783358;79;20981;-66
2022/10/28 02:21:02;;;;;;;15.15;13.45;;;;;;;10.98;100.00;100299.80;1783219;79;21105;-64
2022/10/28 02:23:49;;;;;;;15.45;13.78;;;;;;;10.96;100.00;100298.53;1789209;79;22089;-67
2022/10/28 02:26:30;;;;;;;17.23;13.10;;;;;;;10.97;100.00;100301.53;1782537;79;20993;-67
2022/10/28 02:29:15;;;;;;;13.85;12.55;;;;;;;10.95;100.00;100290.31;1757919;80;21689;-67
2022/10/28 02:31:49;;;;;;;15.83;12.70;;;;;;;10.94;100.00;100295.13;1716660;82;20963;-67
2022/10/28 02:34:20;;;;;;;18.07;12.95;;;;;;;10.92;100.00;100286.52;1764981;80;20977;-67
2022/10/28 02:36:51;;;;;;;13.48;12.05;;;;;;;10.92;100.00;100289.13;1775805;80;21003;-67
2022/10/28 02:39:23;;;;;;;13.98;12.47;;;;;;;10.95;100.00;100287.70;1782033;79;22167;-67
2022/10/28 02:42:10;;;;;;;13.80;12.43;;;;;;;10.93;100.00;100284.29;1780706;79;20902;-67
2022/10/28 02:44:41;;;;;;;14.60;13.03;;;;;;;10.92;100.00;100276.06;1724514;82;21687;-67
2022/10/28 02:47:17;;;;;;;14.38;12.98;;;;;;;10.93;100.00;100272.53;1694286;83;21055;-66
2022/10/28 02:49:47;;;;;;;14.45;13.00;;;;;;;10.95;100.00;100273.33;1693498;83;21863;-67
2022/10/28 02:52:17;;;;;;;12.73;11.53;;;;;;;10.98;100.00;100270.59;1700590;83;21421;-67
2022/10/28 02:54:49;;;;;;;15.38;12.10;;;;;;;10.98;100.00;100262.75;1693414;82;21103;-67
2022/10/28 02:57:19;;;;;;;13.53;11.28;;;;;;;10.97;100.00;100267.56;1696356;83;21103;-67
2022/10/28 02:59:58;;;;;;;13.22;11.83;;;;;;;10.95;100.00;100265.49;1690690;83;21026;-67
2022/10/28 03:02:26;;;;;;;11.78;10.68;;;;;;;10.96;100.00;100263.72;1689288;83;21299;-67
2022/10/28 03:04:53;;;;;;;14.05;10.80;;;;;;;10.99;100.00;100255.76;1690971;83;21128;-67
2022/10/28 03:07:20;;;;;;;11.48;10.28;;;;;;;11.01;100.00;100256.98;1690759;82;21101;-67
2022/10/28 03:09:47;;;;;;;13.58;10.72;;;;;;;11.05;100.00;100250.74;1693822;83;20989;-67
2022/10/28 03:12:14;;;;;;;15.93;11.87;;;;;;;11.09;100.00;100247.08;1689267;83;21042;-67
2022/10/28 03:14:41;;;;;;;13.03;10.65;;;;;;;11.11;100.00;100243.95;1699043;83;21951;-66
2022/10/28 03:17:08;;;;;;;12.55;10.80;;;;;;;11.12;100.00;100248.28;1698341;83;21755;-67
2022/10/28 03:19:34;;;;;;;11.22;10.03;;;;;;;11.14;100.00;100239.44;1699580;83;21133;-67
2022/10/28 03:22:01;;;;;;;13.93;10.47;;;;;;;11.17;100.00;100233.23;1761139;79;21001;-67
2022/10/28 03:24:28;;;;;;;12.70;10.85;;;;;;;11.15;100.00;100235.93;1784787;79;21061;-67
2022/10/28 03:26:55;;;;;;;10.75;9.65;;;;;;;11.17;100.00;100238.47;1787141;79;21043;-67
2022/10/28 03:29:21;;;;;;;11.90;10.58;;;;;;;11.18;100.00;100233.65;1782713;79;20889;-66
2022/10/28 03:31:48;;;;;;;12.40;10.60;;;;;;;11.18;100.00;100237.57;1791287;79;22225;-68
2022/10/28 03:34:15;;;;;;;11.93;10.28;;;;;;;11.20;100.00;100240.95;1792961;79;21134;-67
2022/10/28 03:36:42;;;;;;;14.90;11.40;;;;;;;11.21;100.00;100236.13;1787318;79;21085;-67
2022/10/28 03:39:08;;;;;;;13.38;11.50;;;;;;;11.23;100.00;100232.13;1765056;80;21100;-66
2022/10/28 03:41:35;;;;;;;12.70;10.87;;;;;;;11.26;100.00;100230.27;1766284;80;21036;-67
2022/10/28 03:44:02;;;;;;;13.03;11.33;;;;;;;11.28;100.00;100227.10;1773156;80;21196;-66
2022/10/28 03:46:28;;;;;;;13.80;11.95;;;;;;;11.29;100.00;100222.28;1774921;80;21964;-67
2022/10/28 03:48:55;;;;;;;14.47;12.50;;;;;;;11.29;100.00;100227.52;1787876;79;20973;-67
2022/10/28 03:51:22;;;;;;;13.32;11.68;;;;;;;11.33;100.00;100225.15;1780706;79;21084;-67
2022/10/28 03:53:48;;;;;;;13.90;12.10;;;;;;;11.38;100.00;100216.66;1781919;79;20960;-67
2022/10/28 03:56:15;;;;;;;12.10;10.58;;;;;;;11.38;100.00;100216.66;1784503;79;21535;-66
2022/10/28 03:58:42;;;;;;;12.98;11.68;;;;;;;11.39;100.00;100210.50;1786421;79;28164;-66
2022/10/28 04:01:09;;;;;;;12.17;10.70;;;;;;;11.41;100.00;100207.38;1780033;79;21608;-67
2022/10/28 04:03:36;;;;;;;12.43;11.10;;;;;;;11.42;100.00;100186.84;1785879;79;21400;-67
2022/10/28 04:06:03;;;;;;;12.18;11.03;;;;;;;11.46;100.00;100190.66;1776132;79;21028;-66
2022/10/28 04:08:31;;;;;;;13.38;10.95;;;;;;;11.47;100.00;100187.11;1757386;80;20944;-66
2022/10/28 04:10:57;;;;;;;11.05;9.95;;;;;;;11.50;100.00;100188.28;1746274;80;21111;-67
2022/10/28 04:13:24;;;;;;;12.45;10.43;;;;;;;11.52;100.00;100189.08;1749484;80;20924;-67
2022/10/28 04:15:51;;;;;;;13.83;12.35;;;;;;;11.52;100.00;100185.16;1750675;80;21501;-66
2022/10/28 04:18:18;;;;;;;15.10;11.27;;;;;;;11.55;100.00;100178.48;1757041;80;21083;-66
2022/10/28 04:20:45;;;;;;;12.37;11.08;;;;;;;11.55;100.00;100174.55;1747800;80;21266;-67
2022/10/28 04:23:17;;;;;;;;;;;;;;;11.60;100.00;100178.66;1757219;80;21437;-66
2022/10/28 04:25:44;;;;;;;15.23;12.33;;;;;;;11.61;100.00;100178.20;1749062;80;20222;-64
2022/10/28 04:28:10;;;;;;;16.00;12.80;;;;;;;11.62;100.00;100179.89;1752461;80;21172;-66
2022/10/28 04:30:37;;;;;;;16.23;13.87;;;;;;;11.63;100.00;100180.30;1751489;80;20948;-66
2022/10/28 04:33:03;;;;;;;14.20;12.73;;;;;;;11.65;100.00;100171.94;1749242;80;20925;-66
2022/10/28 04:35:30;;;;;;;14.83;12.37;;;;;;;11.66;100.00;100165.77;1748645;80;20949;-66
2022/10/28 04:37:57;;;;;;;12.70;11.40;;;;;;;11.67;100.00;100157.46;1720946;82;21039;-66
2022/10/28 04:40:26;;;;;;;21.25;11.93;;;;;;;11.69;100.00;100152.55;1751850;80;21902;-67
2022/10/28 04:42:52;;;;;;;13.10;11.55;;;;;;;11.75;100.00;100139.19;1747014;80;20928;-66
2022/10/28 04:45:19;;;;;;;15.32;12.33;;;;;;;11.75;100.00;100139.19;1718466;82;21066;-67
2022/10/28 04:47:46;;;;;;;12.53;11.22;;;;;;;11.78;100.00;100142.97;1747117;80;29052;-67
2022/10/28 04:50:13;;;;;;;13.27;11.87;;;;;;;11.81;100.00;100142.83;1740239;80;20937;-67
2022/10/28 04:52:39;;;;;;;12.88;11.38;;;;;;;11.84;100.00;100143.16;1746985;80;21092;-66
2022/10/28 04:55:07;;;;;;;14.25;11.73;;;;;;;11.86;100.00;100139.58;1742785;80;20950;-66
2022/10/28 04:57:34;;;;;;;15.63;11.43;;;;;;;11.89;100.00;100142.98;1721447;82;21032;-66
2022/10/28 05:00:00;;;;;;;14.17;12.73;;;;;;;11.92;100.00;100142.84;1751936;80;20992;-67
2022/10/28 05:02:28;;;;;;;15.10;13.10;;;;;;;11.93;100.00;100141.91;1750006;80;21527;-66
2022/10/28 05:04:59;;;;;;;17.27;13.38;;;;;;;11.94;100.00;100141.02;1749477;80;21104;-66
2022/10/28 05:07:23;;;;;;;17.48;13.25;;;;;;;11.97;100.00;100152.64;1750337;80;20882;-66
2022/10/28 05:09:49;;;;;;;15.15;13.22;;;;;;;11.97;100.00;100140.87;1752481;80;22209;-66
2022/10/28 05:12:16;;;;;;;16.85;14.25;;;;;;;11.98;100.00;100145.17;1758132;80;21045;-67
2022/10/28 05:14:43;;;;;;;17.47;14.77;;;;;;;11.99;100.00;100145.11;1715024;82;21124;-66
2022/10/28 05:17:12;;;;;;;17.43;14.37;;;;;;;11.98;100.00;100143.86;1759785;80;22273;-66
2022/10/28 05:19:39;;;;;;;17.90;14.55;;;;;;;11.95;100.00;100139.61;1748797;80;21032;-66
2022/10/28 05:22:05;;;;;;;19.70;15.72;;;;;;;11.92;100.00;100129.76;1751769;80;20932;-66
2022/10/28 05:24:34;;;;;;;15.98;13.95;;;;;;;11.88;100.00;100125.59;1751871;80;21020;-66
2022/10/28 05:27:03;;;;;;;16.73;14.55;;;;;;;11.83;100.00;100128.38;1754011;80;21001;-65
2022/10/28 05:29:29;;;;;;;16.85;14.58;;;;;;;11.78;100.00;100114.19;1751419;80;21071;-68
2022/10/28 05:31:56;;;;;;;17.12;15.32;;;;;;;11.69;100.00;100112.01;1746770;80;20990;-66
2022/10/28 05:34:23;;;;;;;16.20;14.53;;;;;;;11.64;100.00;100099.59;1755860;80;20945;-66
2022/10/28 05:36:50;;;;;;;21.40;14.47;;;;;;;11.57;100.00;100101.66;1715535;82;21535;-66
2022/10/28 05:39:17;;;;;;;15.18;12.55;;;;;;;11.51;100.00;100107.16;1750353;80;21658;-66
2022/10/28 05:41:44;;;;;;;15.50;12.90;;;;;;;11.46;100.00;100110.91;1743073;80;21532;-66
2022/10/28 05:44:11;;;;;;;15.43;13.00;;;;;;;11.43;100.00;100111.42;1754807;80;20941;-66
2022/10/28 05:46:37;;;;;;;18.92;15.40;;;;;;;11.42;100.00;100111.48;1756559;80;20972;-66
2022/10/28 05:49:04;;;;;;;16.80;15.00;;;;;;;11.45;100.00;100117.03;1761937;80;21013;-66
2022/10/28 05:51:30;;;;;;;19.62;15.03;;;;;;;11.41;100.00;100118.47;1753147;80;20990;-65
2022/10/28 05:53:57;;;;;;;20.20;15.80;;;;;;;11.40;100.00;100120.71;1752335;80;21406;-67
2022/10/28 05:56:24;;;;;;;19.35;15.40;;;;;;;11.36;100.00;100113.06;1748879;80;21066;-66
2022/10/28 05:58:50;;;;;;;17.97;16.00;;;;;;;11.34;100.00;100110.53;1751445;80;21547;-65
2022/10/28 06:01:17;;;;;;;18.65;15.05;;;;;;;11.32;100.00;100116.28;1752731;80;21490;-66
2022/10/28 06:03:43;;;;;;;18.92;15.13;;;;;;;11.32;100.00;100120.20;1717732;82;21038;-66
2022/10/28 06:06:10;;;;;;;20.70;15.70;;;;;;;11.33;100.00;100121.89;1758144;80;21485;-67
2022/10/28 06:08:37;;;;;;;19.98;15.25;;;;;;;11.37;100.00;100116.05;1787598;79;21039;-67
2022/10/28 06:11:05;;;;;;;18.52;16.35;;;;;;;11.39;100.00;100105.92;1790908;79;20992;-66
2022/10/28 06:13:32;;;;;;;21.27;16.82;;;;;;;11.40;100.00;100103.72;1787873;79;20933;-67
2022/10/28 06:16:00;;;;;;;19.62;15.93;;;;;;;11.42;100.00;100108.39;1781707;79;21593;-66
2022/10/28 06:18:27;;;;;;;17.48;15.35;;;;;;;11.42;100.00;100096.62;1791477;79;20971;-66
2022/10/28 06:20:56;;;;;;;18.27;15.60;;;;;;;11.43;100.00;100099.66;1782121;79;20996;-66
2022/10/28 06:23:24;;;;;;;19.30;14.58;;;;;;;11.50;100.00;100101.98;1789081;79;20981;-66
2022/10/28 06:26:01;;;;;;;18.37;15.93;;;;;;;11.57;100.00;100104.73;1787958;79;21134;-66
2022/10/28 06:28:28;;;;;;;17.02;15.03;;;;;;;11.67;100.00;100102.53;1760735;80;21026;-67
2022/10/28 06:31:05;;;;;;;18.05;14.78;;;;;;;11.81;100.00;100099.66;1731959;82;21270;-67
2022/10/28 06:33:32;;;;;;;16.05;14.33;;;;;;;11.89;100.00;100084.11;1770275;80;20943;-65
2022/10/28 06:35:59;;;;;;;16.20;14.55;;;;;;;12.16;100.00;100099.82;1767967;80;21008;-65
2022/10/28 06:38:28;;;;;;;18.05;13.85;;;;;;;12.45;100.00;100098.41;1790083;79;21568;-66
2022/10/28 06:41:02;;;;;;;17.10;13.88;;;;;;;12.71;100.00;100097.09;1792204;79;21013;-65
2022/10/28 06:43:26;;;;;;;15.18;13.58;;;;;;;12.92;100.00;100094.34;1787326;79;22013;-67
2022/10/28 06:45:55;;;;;;;19.60;13.48;;;;;;;13.05;100.00;100092.80;1789832;79;21485;-66
2022/10/28 06:48:22;;;;;;;16.93;13.25;;;;;;;13.09;100.00;100094.31;1778905;79;21054;-67
2022/10/28 06:50:48;;;;;;;16.02;13.40;;;;;;;13.02;100.00;100086.38;1788055;79;21544;-67
2022/10/28 06:53:15;;;;;;;15.08;13.48;;;;;;;12.96;100.00;100086.70;1784825;79;20913;-67
2022/10/28 06:55:47;;;;;;;16.95;13.45;;;;;;;12.87;100.00;100081.46;1791826;79;21104;-67
2022/10/28 06:58:10;;;;;;;14.95;13.38;;;;;;;12.88;100.00;100077.06;1764658;80;21174;-67
2022/10/28 07:00:38;;;;;;;16.55;14.38;;;;;;;12.92;100.00;100076.84;1773377;80;21689;-67
2022/10/28 07:03:07;;;;;;;17.25;14.45;;;;;;;12.98;100.00;100088.78;1768587;80;21551;-67
2022/10/28 07:05:36;;;;;;;15.45;13.85;;;;;;;13.06;100.00;100093.64;1771362;80;21142;-67
2022/10/28 07:08:03;;;;;;;20.05;13.80;;;;;;;13.24;100.00;100095.76;1776098;79;21462;-67
2022/10/28 07:10:30;;;;;;;18.23;14.53;;;;;;;13.45;100.00;100087.27;1756964;80;21517;-66
2022/10/28 07:12:57;;;;;;;17.12;15.23;;;;;;;13.55;100.00;100088.45;1754682;80;20977;-67
2022/10/28 07:15:24;;;;;;;17.57;15.13;;;;;;;13.60;100.00;100091.20;1758166;80;21079;-67
2022/10/28 07:17:55;;;;;;;20.32;14.75;;;;;;;13.71;100.00;100087.16;1767805;80;21060;-67
2022/10/28 07:20:23;;;;;;;15.60;13.45;;;;;;;13.82;100.00;100084.33;1731207;82;21598;-67
2022/10/28 07:23:00;;;;;;;15.53;13.83;;;;;;;13.86;100.00;100077.13;1730224;82;21508;-67
2022/10/28 07:25:29;;;;;;;;;;;;;;;13.82;100.00;100086.12;1716337;82;21535;-66
2022/10/28 07:27:59;;;;;;;17.50;14.20;;;;;;;13.80;100.00;100086.19;1762946;80;21599;-66
2022/10/28 07:30:28;;;;;;;17.10;15.08;;;;;;;13.81;100.00;100084.44;1758456;80;21074;-66
2022/10/28 07:32:57;;;;;;;17.07;15.08;;;;;;;13.88;100.00;100079.21;1758747;80;21524;-66
2022/10/28 07:35:23;;;;;;;18.60;14.63;;;;;;;13.93;100.00;100085.53;1759440;80;21222;-67
2022/10/28 07:38:28;;;;;;;16.60;14.90;;;;;;;13.96;100.00;100083.58;1811166;77;22368;-66
2022/10/28 07:40:55;;;;;;;15.38;13.72;;;;;;;13.99;100.00;100085.19;1812790;77;21638;-67
2022/10/28 07:43:22;;;;;;;18.17;15.43;;;;;;;14.02;100.00;100081.91;1819203;77;21172;-65
2022/10/28 07:45:57;;;;;;;15.60;13.88;;;;;;;14.03;100.00;100087.56;1809058;77;21035;-68
2022/10/28 07:48:23;;;;;;;18.15;13.70;;;;;;;14.08;100.00;100079.41;1812817;78;21052;-68
2022/10/28 07:50:50;;;;;;;13.90;12.47;;;;;;;14.23;100.00;100075.09;1812065;77;20956;-69
2022/10/28 07:53:17;;;;;;;15.47;13.60;;;;;;;14.57;100.00;100073.19;1824065;78;21037;-69
2022/10/28 07:55:43;;;;;;;16.27;13.43;;;;;;;14.57;100.00;100073.19;1825734;78;22210;-69
2022/10/28 07:58:10;;;;;;;17.57;14.33;;;;;;;14.68;100.00;100083.92;1821717;78;21463;-68
2022/10/28 08:00:37;;;;;;;16.85;14.00;;;;;;;14.72;100.00;100069.65;1815218;78;20969;-68
2022/10/28 08:03:03;;;;;;;17.00;14.30;;;;;;;14.62;100.00;100071.11;1790446;78;20966;-70
2022/10/28 08:05:30;;;;;;;14.78;13.28;;;;;;;14.61;100.00;100066.80;1818237;78;20961;-68
2022/10/28 08:07:57;;;;;;;15.13;13.53;;;;;;;14.70;100.00;100063.63;1823049;78;21555;-68
2022/10/28 08:10:24;;;;;;;16.57;13.80;;;;;;;14.80;100.00;100066.10;1812148;78;21625;-68
2022/10/28 08:12:50;;;;;;;16.70;14.07;;;;;;;14.93;100.00;100065.76;1778194;78;20988;-70
2022/10/28 08:15:19;;;;;;;16.73;13.78;;;;;;;14.94;100.00;100064.80;1816933;78;20938;-68
2022/10/28 08:17:50;;;;;;;14.50;12.40;;;;;;;15.04;100.00;100067.75;1818382;78;20975;-68
2022/10/28 08:20:16;;;;;;;15.70;12.88;;;;;;;15.18;100.00;100064.28;1813238;78;21068;-68
2022/10/28 08:22:43;;;;;;;13.83;12.33;;;;;;;15.19;100.00;100060.70;1813096;78;21008;-69
2022/10/28 08:25:10;;;;;;;15.60;11.88;;;;;;;15.18;100.00;100065.13;1810730;78;20968;-68
2022/10/28 08:27:36;;;;;;;14.93;12.13;;;;;;;15.24;100.00;100053.38;1822471;78;21589;-68
2022/10/28 08:30:04;;;;;;;;;;;;;;;15.32;100.00;100060.34;1809776;78;21530;-68
2022/10/28 08:32:31;;;;;;;13.70;11.97;;;;;;;15.40;100.00;100051.50;1820985;78;21328;-68
2022/10/28 08:34:57;;;;;;;13.75;11.90;;;;;;;15.43;100.00;100048.67;1821786;77;20901;-68
2022/10/28 08:37:24;;;;;;;13.58;10.95;;;;;;;15.50;100.00;100045.66;1814440;78;21523;-68
2022/10/28 08:39:51;;;;;;;12.82;11.10;;;;;;;15.60;100.00;100044.99;1817204;77;28175;-69
2022/10/28 08:42:38;;;;;;;16.87;11.83;;;;;;;15.67;100.00;100037.54;1805105;78;21083;-66
2022/10/28 08:45:16;;;;;;;14.30;10.95;;;;;;;15.78;100.00;100037.73;1821740;78;21246;-67
2022/10/28 08:48:08;;;;;;;13.03;10.82;;;;;;;15.96;100.00;100030.91;1817503;78;21114;-67
2022/10/28 08:50:40;;;;;;;16.52;11.25;;;;;;;16.11;100.00;100024.66;1808224;77;21466;-68
2022/10/28 08:53:15;;;;;;;12.15;9.98;;;;;;;16.22;100.00;100031.38;1811246;78;21069;-68
2022/10/28 08:55:46;;;;;;;11.45;10.18;;;;;;;16.34;100.00;100023.98;1811521;78;21051;-67
2022/10/28 08:58:21;;;;;;;14.47;10.70;;;;;;;16.52;100.00;100023.24;1808624;78;22203;-68
2022/10/28 09:00:55;;;;;;;12.58;9.85;;;;;;;16.56;99.96;100015.96;1812300;78;21015;-68
2022/10/28 09:03:25;;;;;;;12.18;9.98;;;;;;;16.81;100.00;100014.34;1815754;78;21553;-68
2022/10/28 09:06:05;;;;;;;13.28;9.83;;;;;;;16.95;99.69;100010.27;1813794;77;21017;-68
2022/10/28 09:08:36;;;;;;;16.45;11.22;;;;;;;17.04;99.80;100005.66;1825487;77;20931;-68
2022/10/28 09:11:35;;;;;;;12.55;10.38;;;;;;;17.05;99.98;100004.70;1819597;77;21036;-68
2022/10/28 09:14:26;;;;;;;13.98;10.53;;;;;;;16.97;98.68;100004.39;1748239;80;21005;-68
2022/10/28 09:17:06;;;;;;;12.18;10.88;;;;;;;16.76;98.77;100004.06;1728586;80;21014;-67
2022/10/28 09:19:47;;;;;;;12.47;9.73;;;;;;;16.69;98.78;100003.64;1742913;80;21162;-66
2022/10/28 09:23:03;;;;;;;14.28;10.85;;;;;;;16.67;98.75;100005.53;1738944;80;20978;-66
2022/10/28 09:26:20;;;;;;;11.60;10.43;;;;;;;16.64;98.33;99995.20;1740169;80;21677;-66
2022/10/28 09:29:15;;;;;;;17.17;11.65;;;;;;;16.66;98.15;100001.19;1737227;80;20967;-66
2022/10/28 09:31:58;;;;;;;14.23;11.88;;;;;;;16.74;97.82;99996.23;1745025;80;21043;-64
2022/10/28 09:34:42;;;;;;;18.77;12.05;;;;;;;16.85;98.22;99995.53;1745756;80;22545;-66
2022/10/28 09:37:36;;;;;;;14.20;11.75;;;;;;;16.96;98.10;100000.08;1753514;80;21640;-67
2022/10/28 09:40:17;;;;;;;18.05;13.32;;;;;;;17.16;97.95;99990.77;1740113;80;21142;-68
2022/10/28 09:43:17;;;;;;;15.43;13.13;;;;;;;17.27;97.38;99987.38;1744968;80;21639;-68
2022/10/28 09:45:47;;;;;;;19.52;13.55;;;;;;;17.23;96.19;99990.23;1746950;80;21078;-69
2022/10/28 09:48:22;;;;;;;14.75;12.58;;;;;;;17.12;96.54;99990.14;1736192;80;21232;-67
2022/10/28 09:50:53;;;;;;;14.85;12.78;;;;;;;17.05;95.96;99983.59;1759081;80;21037;-66
2022/10/28 09:53:51;;;;;;;14.98;13.38;;;;;;;16.90;95.80;99982.05;1779295;80;21000;-66
2022/10/28 09:56:36;;;;;;;15.58;13.65;;;;;;;16.73;95.83;99989.29;1783574;80;21075;-68
2022/10/28 09:59:04;;;;;;;20.08;14.35;;;;;;;16.81;95.93;99982.69;1773927;80;21407;-67
2022/10/28 10:01:36;;;;;;;17.52;13.65;;;;;;;16.85;96.16;99989.42;1784904;78;21222;-66
2022/10/28 10:04:22;;;;;;;15.90;13.55;;;;;;;16.86;95.77;99984.06;1788546;78;21033;-68
2022/10/28 10:07:02;;;;;;;19.32;14.55;;;;;;;16.75;95.29;99978.66;1818520;78;23222;-66
2022/10/28 10:09:35;;;;;;;18.67;15.25;;;;;;;16.65;95.18;99993.40;1789198;78;21009;-65
2022/10/28 10:12:08;;;;;;;17.62;12.58;;;;;;;16.66;95.44;99992.44;1815407;77;20901;-66
2022/10/28 10:14:51;;;;;;;18.73;15.40;;;;;;;16.75;96.20;99987.40;1823509;78;20991;-68
2022/10/28 10:17:23;;;;;;;17.52;14.85;;;;;;;16.86;96.03;99991.10;1817048;78;20934;-66
2022/10/28 10:20:09;;;;;;;21.05;15.18;;;;;;;16.86;95.34;99992.42;1823018;77;22418;-67
2022/10/28 10:22:43;;;;;;;24.57;16.77;;;;;;;16.96;94.91;99994.80;1818676;78;20894;-67
2022/10/28 10:25:29;;;;;;;21.45;14.93;;;;;;;17.00;95.23;99988.38;1819004;78;20939;-65
2022/10/28 10:28:00;;;;;;;17.82;14.03;;;;;;;17.05;94.67;99995.47;1820255;78;21005;-67
2022/10/28 10:30:35;;;;;;;16.97;13.53;;;;;;;17.16;94.92;99990.28;1823415;78;21143;-67
2022/10/28 10:33:03;;;;;;;16.77;14.68;;;;;;;17.34;95.20;99978.08;1780009;77;21116;-67
2022/10/28 10:36:11;;;;;;;15.80;14.10;;;;;;;17.38;94.43;99972.45;1817177;78;20996;-67
2022/10/28 10:38:58;;;;;;;15.83;13.95;;;;;;;17.39;94.40;99978.57;1697855;82;21127;-67
2022/10/28 10:41:41;;;;;;;16.87;14.45;;;;;;;17.41;94.26;99974.03;1699339;82;21052;-68
2022/10/28 10:44:33;;;;;;;17.27;13.98;;;;;;;17.50;94.72;99966.77;1698796;82;21037;-68
2022/10/28 10:47:05;;;;;;;16.15;13.58;;;;;;;17.56;94.21;99967.67;1694750;83;21162;-67
2022/10/28 10:49:31;;;;;;;14.60;12.73;;;;;;;17.58;94.26;99973.66;1697642;84;21020;-67
2022/10/28 10:52:02;;;;;;;18.20;13.65;;;;;;;17.47;93.74;99973.59;1699384;82;21176;-67
2022/10/28 10:54:32;;;;;;;16.75;13.48;;;;;;;17.37;93.49;99967.30;1700551;82;21096;-67
2022/10/28 10:57:18;;;;;;;24.07;14.23;;;;;;;17.28;93.60;99970.58;1698319;82;20996;-67
2022/10/28 10:59:51;;;;;;;17.45;14.30;;;;;;;17.26;93.74;99969.87;1697386;82;21951;-68
2022/10/28 11:02:26;;;;;;;16.35;11.65;;;;;;;17.28;94.02;99973.22;1699929;83;21006;-67
2022/10/28 11:04:58;;;;;;;13.03;11.35;;;;;;;17.37;93.82;99969.95;1695494;82;21159;-67
2022/10/28 11:07:27;;;;;;;14.47;12.47;;;;;;;17.46;93.89;99974.55;1698983;82;21038;-68
2022/10/28 11:09:55;;;;;;;13.08;11.70;;;;;;;17.47;93.45;99973.59;1695185;82;21685;-66
2022/10/28 11:12:45;;;;;;;17.70;12.60;;;;;;;17.42;93.24;99975.71;1694690;82;21149;-67
2022/10/28 11:15:20;;;;;;;17.55;11.65;;;;;;;17.48;93.73;99975.30;1740482;79;21060;-69
2022/10/28 11:18:10;;;;;;;16.17;12.63;;;;;;;17.55;93.31;99971.24;1785001;79;21019;-67
2022/10/28 11:20:57;;;;;;;14.78;11.10;;;;;;;17.62;93.42;99969.02;1788548;79;20986;-66
2022/10/28 11:23:46;;;;;;;14.78;11.75;;;;;;;17.68;93.12;99968.57;1787575;79;21472;-67
2022/10/28 11:26:36;;;;;;;17.35;11.00;;;;;;;17.71;93.19;99967.50;1788281;80;21039;-68
2022/10/28 11:29:21;;;;;;;12.18;9.60;;;;;;;17.74;92.92;99960.67;1787985;79;20981;-67
2022/10/28 11:32:08;;;;;;;17.57;9.80;;;;;;;17.77;92.61;99961.77;1789380;79;21890;-66
2022/10/28 11:35:07;;;;;;;10.45;8.98;;;;;;;17.79;92.35;99955.94;1784124;80;21471;-66